createdAt,value
2018-07-15T00:01:00.802Z,99292.66
2018-07-15T00:03:37.041Z,99306.44
2018-07-15T00:06:07.937Z,99302.61
2018-07-15T00:08:38.274Z,99306.23
2018-07-15T00:11:11.370Z,99302.67
2018-07-15T00:13:41.878Z,99300.47
2018-07-15T00:16:12.043Z,99296.99
2018-07-15T00:18:42.235Z,99297.73
2018-07-15T00:21:12.603Z,99293.91
2018-07-15T00:23:43.314Z,99289.86
2018-07-15T00:26:13.696Z,99290.73
2018-07-15T00:28:43.866Z,99286.13
2018-07-15T00:31:15.020Z,99288.88
2018-07-15T00:33:45.391Z,99286.69
2018-07-15T00:36:16.157Z,99287.25
2018-07-15T00:38:46.363Z,99286.44
2018-07-15T00:41:16.650Z,99284.02
2018-07-15T00:43:46.862Z,99273.01
2018-07-15T00:46:16.998Z,99271.38
2018-07-15T00:48:47.762Z,99276.97
2018-07-15T00:51:17.963Z,99274.05
2018-07-15T00:53:48.154Z,99272.98
2018-07-15T00:56:19.110Z,99267.47
2018-07-15T00:58:50.155Z,99260.90
2018-07-15T01:01:20.315Z,99259.61
2018-07-15T01:03:50.416Z,99261.55
2018-07-15T01:06:20.495Z,99258.31
2018-07-15T01:08:50.798Z,99269.08
2018-07-15T01:11:21.066Z,99266.07
2018-07-15T01:13:51.761Z,99264.44
2018-07-15T01:16:21.944Z,99266.41
2018-07-15T01:18:52.281Z,99260.09
2018-07-15T01:21:22.770Z,99268.09
2018-07-15T01:23:53.120Z,99270.59
2018-07-15T01:26:23.055Z,99267.92
2018-07-15T01:28:53.058Z,99268.23
2018-07-15T01:31:23.370Z,99272.70
2018-07-15T01:33:53.655Z,99272.19
2018-07-15T01:36:23.763Z,99272.75
2018-07-15T01:38:54.189Z,99273.00
2018-07-15T01:41:24.163Z,99278.51
2018-07-15T01:43:54.387Z,99273.34
2018-07-15T01:46:24.694Z,99278.84
2018-07-15T01:48:55.120Z,99275.84
2018-07-15T01:51:25.339Z,99276.95
2018-07-15T01:53:56.458Z,99279.45
2018-07-15T01:56:26.651Z,99267.38
2018-07-15T01:58:57.166Z,99271.11
2018-07-15T02:01:27.721Z,99278.08
2018-07-15T02:03:58.417Z,99283.63
2018-07-15T02:06:28.918Z,99282.89
2018-07-15T02:08:59.126Z,99276.37
2018-07-15T02:11:29.589Z,99280.58
2018-07-15T02:13:59.869Z,99277.66
2018-07-15T02:16:30.122Z,99277.70
2018-07-15T02:19:00.259Z,99276.74
2018-07-15T02:21:30.482Z,99279.62
2018-07-15T02:24:00.574Z,99277.98
2018-07-15T02:26:30.950Z,99279.75
2018-07-15T02:29:01.007Z,99280.12
2018-07-15T02:31:31.246Z,99276.64
2018-07-15T02:34:01.488Z,99271.78
2018-07-15T02:36:31.709Z,99275.98
2018-07-15T02:39:01.864Z,99270.27
2018-07-15T02:41:31.744Z,99261.80
2018-07-15T02:44:02.513Z,99268.97
2018-07-15T02:46:33.140Z,99268.48
2018-07-15T02:49:03.853Z,99270.17
2018-07-15T02:51:34.308Z,99274.59
2018-07-15T02:54:04.491Z,99266.42
2018-07-15T02:56:34.651Z,99267.05
2018-07-15T02:59:04.731Z,99270.70
2018-07-15T03:01:35.155Z,99269.37
2018-07-15T03:04:05.386Z,99270.26
2018-07-15T03:06:35.632Z,99272.49
2018-07-15T03:09:07.778Z,99273.12
2018-07-15T03:11:38.218Z,99275.06
2018-07-15T03:14:08.264Z,99280.07
2018-07-15T03:16:38.619Z,99275.44
2018-07-15T03:19:08.750Z,99276.06
2018-07-15T03:21:38.955Z,99275.55
2018-07-15T03:24:09.412Z,99272.80
2018-07-15T03:26:39.584Z,99269.53
2018-07-15T03:29:09.726Z,99276.15
2018-07-15T03:31:39.898Z,99275.84
2018-07-15T03:34:10.604Z,99279.97
2018-07-15T03:36:40.896Z,99287.33
2018-07-15T03:39:11.396Z,99283.46
2018-07-15T03:41:41.583Z,99282.65
2018-07-15T03:44:11.739Z,99285.17
2018-07-15T03:46:41.831Z,99285.47
2018-07-15T03:49:11.900Z,99286.28
2018-07-15T03:51:42.008Z,99283.53
2018-07-15T03:54:12.210Z,99282.46
2018-07-15T03:56:43.044Z,99284.72
2018-07-15T03:59:13.149Z,99275.97
2018-07-15T04:01:43.230Z,99285.91
2018-07-15T04:04:13.396Z,99279.05
2018-07-15T04:06:43.766Z,99279.27
2018-07-15T04:09:13.819Z,99282.02
2018-07-15T04:11:43.983Z,99283.66
2018-07-15T04:14:14.289Z,99286.02
2018-07-15T04:16:44.401Z,99282.42
2018-07-15T04:19:14.786Z,99282.63
2018-07-15T04:21:45.401Z,99281.67
2018-07-15T04:24:15.589Z,99278.55
2018-07-15T04:26:45.965Z,99274.30
2018-07-15T04:29:16.216Z,99278.31
2018-07-15T04:31:46.153Z,99278.41
2018-07-15T04:34:16.285Z,99284.83
2018-07-15T04:36:46.342Z,99284.71
2018-07-15T04:39:17.301Z,99284.25
2018-07-15T04:41:47.456Z,99280.00
2018-07-15T04:44:17.833Z,99286.93
2018-07-15T04:46:48.297Z,99282.34
2018-07-15T04:49:18.518Z,99285.27
2018-07-15T04:51:48.759Z,99284.32
2018-07-15T04:54:19.211Z,99289.12
2018-07-15T04:56:49.362Z,99283.19
2018-07-15T04:59:19.744Z,99284.41
2018-07-15T05:01:49.948Z,99291.41
2018-07-15T05:04:19.935Z,99295.62
2018-07-15T05:06:50.099Z,99302.11
2018-07-15T05:11:55.809Z,99307.66
2018-07-15T05:14:26.793Z,99300.42
2018-07-15T05:16:57.203Z,99302.63
2018-07-15T05:19:27.484Z,99301.80
2018-07-15T05:21:57.657Z,99301.58
2018-07-15T05:24:28.031Z,99311.44
2018-07-15T05:26:58.311Z,99305.38
2018-07-15T05:29:28.420Z,99310.02
2018-07-15T05:31:59.147Z,99307.42
2018-07-15T05:34:29.618Z,99319.42
2018-07-15T05:36:59.854Z,99314.14
2018-07-15T05:39:30.152Z,99312.14
2018-07-15T05:42:00.453Z,99312.94
2018-07-15T05:44:30.796Z,99319.51
2018-07-15T05:47:00.809Z,99315.07
2018-07-15T05:49:30.938Z,99318.86
2018-07-15T05:52:01.039Z,99320.75
2018-07-15T05:54:31.398Z,99323.41
2018-07-15T05:57:01.792Z,99323.83
2018-07-15T05:59:32.087Z,99324.51
2018-07-15T06:02:03.698Z,99323.55
2018-07-15T06:04:33.967Z,99325.91
2018-07-15T06:07:04.415Z,99323.31
2018-07-15T06:09:34.228Z,99317.97
2018-07-15T06:12:04.549Z,99317.09
2018-07-15T06:14:34.647Z,99319.76
2018-07-15T06:17:05.647Z,99326.56
2018-07-15T06:19:35.883Z,99324.53
2018-07-15T06:22:06.121Z,99319.77
2018-07-15T06:24:36.278Z,99325.35
2018-07-15T06:27:06.143Z,99322.19
2018-07-15T06:29:36.858Z,99329.41
2018-07-15T06:32:07.124Z,99328.91
2018-07-15T06:34:37.334Z,99328.50
2018-07-15T06:37:07.896Z,99330.29
2018-07-15T06:39:38.034Z,99323.55
2018-07-15T06:42:08.236Z,99323.73
2018-07-15T06:44:38.392Z,99327.00
2018-07-15T06:47:08.807Z,99330.16
2018-07-15T06:49:39.169Z,99327.56
2018-07-15T06:52:09.363Z,99324.14
2018-07-15T06:54:39.235Z,99324.77
2018-07-15T06:57:09.444Z,99322.66
2018-07-15T06:59:39.741Z,99320.66
2018-07-15T07:02:09.829Z,99326.73
2018-07-15T07:04:40.224Z,99325.75
2018-07-15T07:07:10.558Z,99320.06
2018-07-15T07:09:40.741Z,99322.97
2018-07-15T07:12:11.023Z,99317.92
2018-07-15T07:14:41.140Z,99316.94
2018-07-15T07:17:11.219Z,99308.80
2018-07-15T07:19:41.488Z,99310.60
2018-07-15T07:22:11.216Z,99319.77
2018-07-15T07:24:41.412Z,99318.07
2018-07-15T07:27:12.178Z,99327.06
2018-07-15T07:29:42.792Z,99324.88
2018-07-15T07:32:12.915Z,99315.56
2018-07-15T07:34:43.176Z,99320.41
2018-07-15T07:37:14.019Z,99322.50
2018-07-15T07:39:44.354Z,99325.02
2018-07-15T07:42:14.733Z,99321.48
2018-07-15T07:44:45.630Z,99324.09
2018-07-15T07:47:15.353Z,99325.93
2018-07-15T07:49:45.743Z,99314.13
2018-07-15T07:52:15.894Z,99322.95
2018-07-15T07:54:46.190Z,99321.22
2018-07-15T07:57:16.194Z,99323.91
2018-07-15T07:59:46.542Z,99319.03
2018-07-15T08:02:17.062Z,99324.13
2018-07-15T08:04:47.240Z,99324.17
2018-07-15T08:07:17.448Z,99323.75
2018-07-15T08:09:47.369Z,99321.66
2018-07-15T08:12:17.531Z,99326.72
2018-07-15T08:14:48.018Z,99319.42
2018-07-15T08:17:18.390Z,99324.13
2018-07-15T08:19:48.562Z,99321.63
2018-07-15T08:22:19.407Z,99322.19
2018-07-15T08:24:49.561Z,99324.59
2018-07-15T08:27:19.738Z,99319.00
2018-07-15T08:30:00.651Z,99313.06
2018-07-15T08:32:30.789Z,99312.28
2018-07-15T08:35:01.617Z,99324.64
2018-07-15T08:37:31.849Z,99319.53
2018-07-15T08:40:02.239Z,99311.75
2018-07-15T08:42:32.688Z,99318.75
2018-07-15T08:45:03.114Z,99311.75
2018-07-15T08:47:33.092Z,99314.51
2018-07-15T08:50:03.639Z,99314.33
2018-07-15T08:52:33.827Z,99317.73
2018-07-15T08:55:04.489Z,99312.70
2018-07-15T08:57:35.414Z,99312.38
2018-07-15T09:00:05.582Z,99307.28
2018-07-15T09:02:35.550Z,99315.82
2018-07-15T09:05:05.679Z,99315.58
2018-07-15T09:07:35.786Z,99312.56
2018-07-15T09:10:06.857Z,99309.80
2018-07-15T09:12:37.523Z,99316.25
2018-07-15T09:15:08.062Z,99305.52
2018-07-15T09:17:38.510Z,99303.95
2018-07-15T09:20:08.882Z,99307.53
2018-07-15T09:22:39.138Z,99303.64
2018-07-15T09:25:09.252Z,99309.23
2018-07-15T09:27:39.668Z,99309.80
2018-07-15T09:30:09.800Z,99312.70
2018-07-15T09:32:39.915Z,99297.33
2018-07-15T09:35:10.228Z,99303.48
2018-07-15T09:37:40.454Z,99306.95
2018-07-15T09:40:10.979Z,99303.38
2018-07-15T09:42:41.371Z,99296.61
2018-07-15T09:45:11.554Z,99307.48
2018-07-15T09:47:41.300Z,99300.70
2018-07-15T09:50:11.691Z,99295.13
2018-07-15T09:52:42.345Z,99298.02
2018-07-15T09:55:12.484Z,99297.02
2018-07-15T09:57:43.038Z,99293.74
2018-07-15T10:00:18.394Z,99285.58
2018-07-15T10:02:48.321Z,99283.08
2018-07-15T10:05:18.700Z,99284.23
2018-07-15T10:07:48.963Z,99283.35
2018-07-15T10:10:19.167Z,99282.67
2018-07-15T10:12:49.666Z,99281.20
2018-07-15T10:15:19.894Z,99279.70
2018-07-15T10:17:50.288Z,99278.13
2018-07-15T10:20:20.691Z,99270.97
2018-07-15T10:22:50.763Z,99282.80
2018-07-15T10:25:20.592Z,99271.74
2018-07-15T10:27:50.959Z,99270.64
2018-07-15T10:30:20.839Z,99271.21
2018-07-15T10:32:51.190Z,99269.05
2018-07-15T10:35:22.701Z,99264.89
2018-07-15T10:37:52.697Z,99266.88
2018-07-15T10:40:22.575Z,99259.02
2018-07-15T10:42:53.077Z,99248.31
2018-07-15T10:45:22.964Z,99240.95
2018-07-15T10:47:53.577Z,99250.75
2018-07-15T10:50:23.883Z,99246.48
2018-07-15T10:52:53.989Z,99246.02
2018-07-15T10:55:24.416Z,99245.55
2018-07-15T10:57:54.482Z,99244.63
2018-07-15T11:00:24.770Z,99242.99
2018-07-15T11:02:54.666Z,99232.80
2018-07-15T11:05:25.230Z,99228.41
2018-07-15T11:07:55.490Z,99225.73
2018-07-15T11:10:25.457Z,99220.35
2018-07-15T11:12:56.296Z,99225.86
2018-07-15T11:15:27.095Z,99224.41
2018-07-15T11:17:57.860Z,99225.55
2018-07-15T11:20:28.010Z,99217.11
2018-07-15T11:22:58.197Z,99225.91
2018-07-15T11:25:28.300Z,99210.93
2018-07-15T11:27:58.766Z,99206.86
2018-07-15T11:30:29.350Z,99207.31
2018-07-15T11:32:59.682Z,99199.04
2018-07-15T11:35:30.067Z,99193.09
2018-07-15T11:37:59.817Z,99198.72
2018-07-15T11:40:30.058Z,99189.52
2018-07-15T11:43:00.164Z,99197.11
2018-07-15T11:45:30.618Z,99184.41
2018-07-15T11:48:00.586Z,99182.53
2018-07-15T11:50:30.601Z,99179.75
2018-07-15T11:53:01.120Z,99169.38
2018-07-15T11:55:31.486Z,99174.17
2018-07-15T11:58:01.699Z,99168.90
2018-07-15T12:00:32.059Z,99169.59
2018-07-15T12:03:02.167Z,99158.83
2018-07-15T12:05:32.553Z,99162.58
2018-07-15T12:08:03.387Z,99155.13
2018-07-15T12:10:33.755Z,99153.62
2018-07-15T12:13:03.683Z,99149.14
2018-07-15T12:15:33.661Z,99148.89
2018-07-15T12:18:03.827Z,99147.96
2018-07-15T12:20:35.036Z,99140.28
2018-07-15T12:23:05.314Z,99133.24
2018-07-15T12:25:35.636Z,99130.83
2018-07-15T12:28:06.336Z,99133.10
2018-07-15T12:30:36.356Z,99131.94
2018-07-15T12:33:06.134Z,99129.81
2018-07-15T12:35:36.271Z,99122.48
2018-07-15T12:38:06.673Z,99118.86
2018-07-15T12:40:36.902Z,99117.56
2018-07-15T12:43:07.066Z,99111.19
2018-07-15T12:45:37.273Z,99113.34
2018-07-15T12:48:07.391Z,99110.68
2018-07-15T12:50:37.572Z,99113.16
2018-07-15T12:53:08.106Z,99110.16
2018-07-15T12:55:38.824Z,99108.99
2018-07-15T12:58:09.188Z,99104.29
2018-07-15T13:00:39.258Z,99107.94
2018-07-15T13:03:09.511Z,99093.27
2018-07-15T13:05:39.472Z,99097.33
2018-07-15T13:08:09.976Z,99094.86
2018-07-15T13:10:39.963Z,99090.31
2018-07-15T13:13:09.792Z,99093.80
2018-07-15T13:15:39.793Z,99090.15
2018-07-15T13:18:09.955Z,99085.86
2018-07-15T13:20:40.160Z,99079.81
2018-07-15T13:23:10.634Z,99075.59
2018-07-15T13:25:40.774Z,99074.25
2018-07-15T13:28:11.493Z,99069.96
2018-07-15T13:30:41.961Z,99071.41
2018-07-15T13:33:11.885Z,99064.14
2018-07-15T13:35:41.648Z,99074.08
2018-07-15T13:38:11.741Z,99065.55
2018-07-15T13:40:41.777Z,99060.95
2018-07-15T13:43:11.998Z,99063.52
2018-07-15T13:45:42.025Z,99057.41
2018-07-15T13:48:11.929Z,99068.43
2018-07-15T13:50:41.804Z,99058.13
2018-07-15T13:53:11.897Z,99059.19
2018-07-15T13:55:42.192Z,99056.81
2018-07-15T13:58:12.419Z,99052.75
2018-07-15T14:00:42.620Z,99057.05
2018-07-15T14:03:12.599Z,99056.05
2018-07-15T14:05:42.639Z,99055.47
2018-07-15T14:08:12.432Z,99054.66
2018-07-15T14:10:43.166Z,99051.88
2018-07-15T14:13:13.237Z,99056.41
2018-07-15T14:15:43.130Z,99057.74
2018-07-15T14:18:13.137Z,99062.89
2018-07-15T14:20:49.217Z,99053.77
2018-07-15T14:23:19.361Z,99051.52
2018-07-15T14:25:49.711Z,99050.88
2018-07-15T14:28:19.553Z,99057.53
2018-07-15T14:30:49.708Z,99051.03
2018-07-15T14:33:19.729Z,99046.55
2018-07-15T14:35:49.710Z,99042.66
2018-07-15T14:38:19.562Z,99045.67
2018-07-15T14:40:49.786Z,99041.56
2018-07-15T14:43:19.800Z,99031.51
2018-07-15T14:45:49.643Z,99044.76
2018-07-15T14:48:20.193Z,99038.52
2018-07-15T14:50:50.393Z,99038.86
2018-07-15T14:53:20.378Z,99043.02
2018-07-15T14:55:50.698Z,99029.39
2018-07-15T14:58:20.626Z,99034.44
2018-07-15T15:00:50.616Z,99033.10
2018-07-15T15:03:20.767Z,99036.45
2018-07-15T15:05:50.900Z,99035.97
2018-07-15T15:08:20.832Z,99036.08
2018-07-15T15:10:50.828Z,99037.58
2018-07-15T15:13:20.990Z,99038.63
2018-07-15T15:15:51.193Z,99034.63
2018-07-15T15:18:21.002Z,99029.69
2018-07-15T15:20:50.957Z,99030.32
2018-07-15T15:23:21.123Z,99034.14
2018-07-15T15:25:51.092Z,99036.16
2018-07-15T15:28:22.222Z,99026.02
2018-07-15T15:30:51.955Z,99023.91
2018-07-15T15:33:21.934Z,99020.67
2018-07-15T15:35:52.281Z,99017.94
2018-07-15T15:38:22.306Z,99011.46
2018-07-15T15:40:52.272Z,99013.70
2018-07-15T15:43:22.415Z,99009.77
2018-07-15T15:45:52.254Z,99010.62
2018-07-15T15:48:22.169Z,99008.86
2018-07-15T15:50:51.976Z,99009.27
2018-07-15T15:53:21.851Z,99002.97
2018-07-15T15:55:51.764Z,98995.02
2018-07-15T15:58:21.713Z,98995.23
2018-07-15T16:00:52.163Z,98999.41
2018-07-15T16:03:22.588Z,98999.78
2018-07-15T16:05:52.400Z,98993.17
2018-07-15T16:08:22.354Z,98997.08
2018-07-15T16:10:52.479Z,98992.81
2018-07-15T16:13:22.440Z,98991.73
2018-07-15T16:15:52.333Z,98991.87
2018-07-15T16:18:22.252Z,98989.81
2018-07-15T16:20:52.912Z,98985.98
2018-07-15T16:23:22.893Z,98994.87
2018-07-15T16:25:52.968Z,98986.98
2018-07-15T16:28:22.865Z,98991.69
2018-07-15T16:30:52.696Z,98988.27
2018-07-15T16:33:25.819Z,98992.40
2018-07-15T16:35:56.099Z,98984.58
2018-07-15T16:38:26.097Z,98982.97
2018-07-15T16:40:56.402Z,98989.48
2018-07-15T16:43:26.464Z,98987.09
2018-07-15T16:45:56.333Z,98982.69
2018-07-15T16:48:26.811Z,98987.26
2018-07-15T16:50:57.005Z,98988.66
2018-07-15T16:53:27.048Z,98985.06
2018-07-15T16:55:57.167Z,98989.23
2018-07-15T16:58:27.268Z,98987.26
2018-07-15T17:00:57.462Z,98988.43
2018-07-15T17:03:27.655Z,98980.22
2018-07-15T17:05:57.645Z,98984.03
2018-07-15T17:08:29.067Z,98982.64
2018-07-15T17:10:59.145Z,98983.45
2018-07-15T17:13:29.059Z,98978.24
2018-07-15T17:15:59.057Z,98974.06
2018-07-15T17:18:29.694Z,98978.47
2018-07-15T17:21:00.034Z,98976.84
2018-07-15T17:23:30.154Z,98972.63
2018-07-15T17:26:00.875Z,98974.41
2018-07-15T17:28:31.111Z,98971.63
2018-07-15T17:31:03.034Z,98963.64
2018-07-15T17:33:32.963Z,98968.98
2018-07-15T17:36:03.153Z,98963.80
2018-07-15T17:38:33.266Z,98964.34
2018-07-15T17:41:03.503Z,98964.11
2018-07-15T17:43:33.808Z,98954.15
2018-07-15T17:46:05.331Z,98949.92
2018-07-15T17:48:36.159Z,98949.01
2018-07-15T17:51:06.359Z,98945.14
2018-07-15T17:53:37.463Z,98943.08
2018-07-15T17:56:07.296Z,98943.02
2018-07-15T17:58:38.223Z,98946.95
2018-07-15T18:01:08.360Z,98944.83
2018-07-15T18:03:38.966Z,98941.58
2018-07-15T18:06:09.356Z,98948.98
2018-07-15T18:08:39.720Z,98940.41
2018-07-15T18:11:10.391Z,98956.34
2018-07-15T18:13:41.624Z,98952.47
2018-07-15T18:16:12.321Z,98953.73
2018-07-15T18:18:42.651Z,98956.13
2018-07-15T18:21:12.657Z,98954.38
2018-07-15T18:23:42.982Z,98954.25
2018-07-15T18:26:12.880Z,98957.70
2018-07-15T18:28:43.203Z,98954.78
2018-07-15T18:31:13.291Z,98954.84
2018-07-15T18:33:43.762Z,98958.88
2018-07-15T18:36:14.892Z,98964.64
2018-07-15T18:38:45.220Z,98965.84
2018-07-15T18:41:15.456Z,98968.86
2018-07-15T18:43:45.908Z,98969.41
2018-07-15T18:46:16.421Z,98971.02
2018-07-15T18:48:46.840Z,98970.98
2018-07-15T18:51:17.234Z,98978.11
2018-07-15T18:53:47.315Z,98982.08
2018-07-15T18:56:17.736Z,98984.69
2018-07-15T18:58:48.217Z,98986.48
2018-07-15T19:01:18.277Z,98994.87
2018-07-15T19:03:48.256Z,98989.50
2018-07-15T19:06:18.402Z,98992.09
2018-07-15T19:08:48.366Z,98992.93
2018-07-15T19:11:19.733Z,98995.98
2018-07-15T19:13:50.129Z,99002.36
2018-07-15T19:16:21.430Z,99000.45
2018-07-15T19:18:51.785Z,98995.84
2018-07-15T19:21:21.851Z,99001.87
2018-07-15T19:23:52.385Z,99004.89
2018-07-15T19:26:22.332Z,99010.11
2018-07-15T19:28:53.191Z,99008.77
2018-07-15T19:31:23.302Z,99002.45
2018-07-15T19:33:53.262Z,99005.70
2018-07-15T19:36:23.453Z,99010.34
2018-07-15T19:38:53.617Z,99008.05
2018-07-15T19:41:27.775Z,99008.52
2018-07-15T19:43:57.940Z,99010.38
2018-07-15T19:46:28.195Z,99021.59
2018-07-15T19:48:58.789Z,99018.72
2018-07-15T19:51:30.041Z,99019.17
2018-07-15T19:54:00.056Z,99019.27
2018-07-15T19:56:30.119Z,99023.56
2018-07-15T19:59:00.130Z,99022.30
2018-07-15T20:01:30.481Z,99018.25
2018-07-15T20:04:01.072Z,99019.20
2018-07-15T20:06:31.464Z,99019.33
2018-07-15T20:09:01.879Z,99013.89
2018-07-15T20:11:32.032Z,99020.81
2018-07-15T20:14:02.298Z,99017.94
2018-07-15T20:16:32.490Z,99020.14
2018-07-15T20:19:02.678Z,99025.23
2018-07-15T20:21:33.531Z,99024.42
2018-07-15T20:24:03.549Z,99023.38
2018-07-15T20:26:33.713Z,99019.80
2018-07-15T20:29:03.833Z,99012.77
2018-07-15T20:31:34.181Z,99014.16
2018-07-15T20:34:05.233Z,99009.80
2018-07-15T20:36:35.634Z,99012.09
2018-07-15T20:39:07.183Z,99014.62
2018-07-15T20:41:37.486Z,99025.25
2018-07-15T20:44:07.568Z,99014.07
2018-07-15T20:46:38.642Z,99012.79
2018-07-15T20:49:08.855Z,99014.78
2018-07-15T20:51:38.963Z,99010.73
2018-07-15T20:54:10.217Z,99015.45
2018-07-15T20:56:40.383Z,99012.23
2018-07-15T20:59:10.665Z,99015.70
2018-07-15T21:01:40.562Z,99015.47
2018-07-15T21:04:11.418Z,99019.51
2018-07-15T21:06:41.319Z,99019.64
2018-07-15T21:09:11.476Z,99023.08
2018-07-15T21:11:42.008Z,99027.35
2018-07-15T21:14:12.208Z,99028.83
2018-07-15T21:16:42.059Z,99020.99
2018-07-15T21:19:12.523Z,99026.05
2018-07-15T21:21:43.388Z,99029.16
2018-07-15T21:24:13.679Z,99027.34
2018-07-15T21:26:43.794Z,99034.61
2018-07-15T21:29:13.995Z,99036.56
2018-07-15T21:31:44.278Z,99044.70
2018-07-15T21:34:14.516Z,99043.33
2018-07-15T21:36:44.841Z,99044.92
2018-07-15T21:39:14.827Z,99044.01
2018-07-15T21:41:45.135Z,99048.73
2018-07-15T21:44:15.643Z,99044.34
2018-07-15T21:46:45.602Z,99051.63
2018-07-15T21:49:15.578Z,99048.19
2018-07-15T21:51:45.853Z,99053.25
2018-07-15T21:54:15.907Z,99054.77
2018-07-15T21:56:45.913Z,99053.84
2018-07-15T21:59:16.883Z,99043.48
2018-07-15T22:01:46.724Z,99044.84
2018-07-15T22:04:16.670Z,99045.31
2018-07-15T22:06:57.525Z,99053.27
2018-07-15T22:09:51.209Z,99047.18
2018-07-15T22:12:21.451Z,99045.81
2018-07-15T22:14:52.003Z,99055.92
2018-07-15T22:17:22.246Z,99053.50
2018-07-15T22:19:52.243Z,99058.20
2018-07-15T22:22:22.091Z,99052.67
2018-07-15T22:24:52.079Z,99063.95
2018-07-15T22:27:21.970Z,99070.18
2018-07-15T22:29:51.813Z,99071.77
2018-07-15T22:32:21.655Z,99078.69
2018-07-15T22:34:51.436Z,99075.92
2018-07-15T22:37:21.202Z,99070.16
2018-07-15T22:39:51.128Z,99076.13
2018-07-15T22:42:21.220Z,99073.81
2018-07-15T22:44:51.165Z,99073.58
2018-07-15T22:47:20.931Z,99076.18
2018-07-15T22:49:51.262Z,99072.03
2018-07-15T22:52:21.415Z,99074.44
2018-07-15T22:54:51.207Z,99079.27
2018-07-15T22:57:21.298Z,99073.13
2018-07-15T22:59:51.270Z,99078.32
2018-07-15T23:02:21.729Z,99080.72
2018-07-15T23:06:00.865Z,99083.56
2018-07-15T23:08:31.744Z,99077.58
2018-07-15T23:11:02.042Z,99079.39
2018-07-15T23:13:31.913Z,99081.42
2018-07-15T23:16:01.989Z,99079.59
2018-07-15T23:18:32.273Z,99091.56
2018-07-15T23:21:02.511Z,99088.88
2018-07-15T23:23:32.482Z,99097.52
2018-07-15T23:26:02.717Z,99094.03
2018-07-15T23:28:33.733Z,99099.91
2018-07-15T23:31:03.692Z,99097.47
2018-07-15T23:33:34.296Z,99098.39
2018-07-15T23:36:04.365Z,99097.09
2018-07-15T23:38:34.633Z,99100.78
2018-07-15T23:41:04.604Z,99104.67
2018-07-15T23:43:34.402Z,99102.84
2018-07-15T23:46:04.349Z,99101.50
2018-07-15T23:48:34.457Z,99097.80
2018-07-15T23:51:04.672Z,99096.28
2018-07-15T23:53:34.735Z,99098.59
2018-07-15T23:56:05.015Z,99093.50
2018-07-15T23:58:34.779Z,99094.73
